sensor_id;sensor_type;location;lat;lon;timestamp;pressure;altitude;pressure_sealevel;temperature
43292;BMP280;28754;47.700;7.924;2022-11-25T00:02:19;91248.06;;;7.19
43292;BMP280;28754;47.700;7.924;2022-11-25T00:05:08;91239.41;;;7.20
43292;BMP280;28754;47.700;7.924;2022-11-25T00:07:54;91242.75;;;7.21
43292;BMP280;28754;47.700;7.924;2022-11-25T00:10:41;91245.03;;;7.22
43292;BMP280;28754;47.700;7.924;2022-11-25T00:13:28;91242.25;;;7.24
43292;BMP280;28754;47.700;7.924;2022-11-25T00:16:19;91243.28;;;7.23
43292;BMP280;28754;47.700;7.924;2022-11-25T00:19:08;91237.94;;;7.24
43292;BMP280;28754;47.700;7.924;2022-11-25T00:21:55;91234.84;;;7.22
43292;BMP280;28754;47.700;7.924;2022-11-25T00:24:42;91247.34;;;7.24
43292;BMP280;28754;47.700;7.924;2022-11-25T00:27:28;91250.63;;;7.19
43292;BMP280;28754;47.700;7.924;2022-11-25T00:30:15;91252.63;;;7.18
43292;BMP280;28754;47.700;7.924;2022-11-25T00:33:02;91253.88;;;7.15
43292;BMP280;28754;47.700;7.924;2022-11-25T00:35:49;91261.53;;;7.15
43292;BMP280;28754;47.700;7.924;2022-11-25T00:38:35;91254.94;;;7.19
43292;BMP280;28754;47.700;7.924;2022-11-25T00:41:23;91259.03;;;7.20
43292;BMP280;28754;47.700;7.924;2022-11-25T00:44:29;91260.56;;;7.21
43292;BMP280;28754;47.700;7.924;2022-11-25T00:47:22;91258.03;;;7.21
43292;BMP280;28754;47.700;7.924;2022-11-25T00:50:09;91254.22;;;7.23
43292;BMP280;28754;47.700;7.924;2022-11-25T00:52:55;91248.66;;;7.26
43292;BMP280;28754;47.700;7.924;2022-11-25T00:55:42;91249.19;;;7.28
43292;BMP280;28754;47.700;7.924;2022-11-25T00:58:48;91262.44;;;7.30
43292;BMP280;28754;47.700;7.924;2022-11-25T01:01:35;91247.94;;;7.31
43292;BMP280;28754;47.700;7.924;2022-11-25T01:04:22;91248.44;;;7.33
43292;BMP280;28754;47.700;7.924;2022-11-25T01:07:09;91254.06;;;7.35
43292;BMP280;28754;47.700;7.924;2022-11-25T01:09:56;91249.47;;;7.32
43292;BMP280;28754;47.700;7.924;2022-11-25T01:12:46;91249.47;;;7.32
43292;BMP280;28754;47.700;7.924;2022-11-25T01:15:36;91250.53;;;7.36
43292;BMP280;28754;47.700;7.924;2022-11-25T01:18:23;91238.78;;;7.35
43292;BMP280;28754;47.700;7.924;2022-11-25T01:21:22;91234.72;;;7.34
43292;BMP280;28754;47.700;7.924;2022-11-25T01:24:12;91249.75;;;7.35
43292;BMP280;28754;47.700;7.924;2022-11-25T01:27:00;91237.81;;;7.36
43292;BMP280;28754;47.700;7.924;2022-11-25T01:29:46;91238.03;;;7.34
43292;BMP280;28754;47.700;7.924;2022-11-25T01:32:33;91231.16;;;7.35
43292;BMP280;28754;47.700;7.924;2022-11-25T01:35:20;91230.16;;;7.36
43292;BMP280;28754;47.700;7.924;2022-11-25T01:38:07;91237.28;;;7.34
43292;BMP280;28754;47.700;7.924;2022-11-25T01:40:53;91238.78;;;7.35
43292;BMP280;28754;47.700;7.924;2022-11-25T01:43:41;91237.81;;;7.36
43292;BMP280;28754;47.700;7.924;2022-11-25T01:52:43;91230.63;;;7.33
43292;BMP280;28754;47.700;7.924;2022-11-25T01:55:34;91234.97;;;7.32
43292;BMP280;28754;47.700;7.924;2022-11-25T01:58:32;91239.28;;;7.32
43292;BMP280;28754;47.700;7.924;2022-11-25T02:01:20;91236.75;;;7.32
43292;BMP280;28754;47.700;7.924;2022-11-25T02:04:10;91237.28;;;7.34
43292;BMP280;28754;47.700;7.924;2022-11-25T02:07:06;91249.75;;;7.35
43292;BMP280;28754;47.700;7.924;2022-11-25T02:09:55;91248.97;;;7.35
43292;BMP280;28754;47.700;7.924;2022-11-25T02:12:45;91242.91;;;7.36
43292;BMP280;28754;47.700;7.924;2022-11-25T02:15:33;91251.06;;;7.38
43292;BMP280;28754;47.700;7.924;2022-11-25T02:18:25;91246.25;;;7.41
43292;BMP280;28754;47.700;7.924;2022-11-25T02:21:17;91230.97;;;7.41
43292;BMP280;28754;47.700;7.924;2022-11-25T02:24:42;91237.34;;;7.44
43292;BMP280;28754;47.700;7.924;2022-11-25T02:27:30;91236.88;;;7.47
43292;BMP280;28754;47.700;7.924;2022-11-25T02:30:17;91237.88;;;7.46
43292;BMP280;28754;47.700;7.924;2022-11-25T02:33:04;91231.00;;;7.46
43292;BMP280;28754;47.700;7.924;2022-11-25T02:36:13;91238.41;;;7.48
43292;BMP280;28754;47.700;7.924;2022-11-25T02:39:02;91234.88;;;7.49
43292;BMP280;28754;47.700;7.924;2022-11-25T02:41:59;91231.78;;;7.47
43292;BMP280;28754;47.700;7.924;2022-11-25T02:44:48;91235.31;;;7.46
43292;BMP280;28754;47.700;7.924;2022-11-25T02:47:35;91235.31;;;7.46
43292;BMP280;28754;47.700;7.924;2022-11-25T02:50:22;91227.94;;;7.44
43292;BMP280;28754;47.700;7.924;2022-11-25T02:53:08;91233.28;;;7.43
43292;BMP280;28754;47.700;7.924;2022-11-25T02:55:56;91235.81;;;7.43
43292;BMP280;28754;47.700;7.924;2022-11-25T02:58:43;91230.72;;;7.43
43292;BMP280;28754;47.700;7.924;2022-11-25T03:01:31;91235.78;;;7.38
43292;BMP280;28754;47.700;7.924;2022-11-25T03:04:18;91231.69;;;7.37
43292;BMP280;28754;47.700;7.924;2022-11-25T03:07:05;91230.16;;;7.36
43292;BMP280;28754;47.700;7.924;2022-11-25T03:09:52;91229.38;;;7.35
43292;BMP280;28754;47.700;7.924;2022-11-25T03:12:39;91223.81;;;7.38
43292;BMP280;28754;47.700;7.924;2022-11-25T03:15:25;91226.09;;;7.40
43292;BMP280;28754;47.700;7.924;2022-11-25T03:18:12;91228.16;;;7.38
43292;BMP280;28754;47.700;7.924;2022-11-25T03:20:59;91232.72;;;7.36
43292;BMP280;28754;47.700;7.924;2022-11-25T03:23:45;91237.28;;;7.34
43292;BMP280;28754;47.700;7.924;2022-11-25T03:26:32;91235.72;;;7.33
43292;BMP280;28754;47.700;7.924;2022-11-25T03:29:19;91237.28;;;7.34
43292;BMP280;28754;47.700;7.924;2022-11-25T03:32:06;91234.22;;;7.37
43292;BMP280;28754;47.700;7.924;2022-11-25T03:34:52;91231.69;;;7.37
43292;BMP280;28754;47.700;7.924;2022-11-25T03:37:39;91237.53;;;7.37
43292;BMP280;28754;47.700;7.924;2022-11-25T03:40:27;91236.78;;;7.37
43292;BMP280;28754;47.700;7.924;2022-11-25T03:43:14;91235.00;;;7.37
43292;BMP280;28754;47.700;7.924;2022-11-25T03:46:01;91241.38;;;7.40
43292;BMP280;28754;47.700;7.924;2022-11-25T03:48:47;91238.34;;;7.38
43292;BMP280;28754;47.700;7.924;2022-11-25T03:51:34;91242.91;;;7.36
43292;BMP280;28754;47.700;7.924;2022-11-25T03:54:21;91234.19;;;7.32
43292;BMP280;28754;47.700;7.924;2022-11-25T03:57:32;91236.97;;;7.30
43292;BMP280;28754;47.700;7.924;2022-11-25T04:00:19;91232.38;;;7.27
43292;BMP280;28754;47.700;7.924;2022-11-25T04:03:19;91235.91;;;7.26
43292;BMP280;28754;47.700;7.924;2022-11-25T04:06:06;91232.84;;;7.24
43292;BMP280;28754;47.700;7.924;2022-11-25T04:08:52;91237.88;;;7.19
43292;BMP280;28754;47.700;7.924;2022-11-25T04:11:40;91233.53;;;7.15
43292;BMP280;28754;47.700;7.924;2022-11-25T04:14:51;91239.09;;;7.12
43292;BMP280;28754;47.700;7.924;2022-11-25T04:17:38;91238.28;;;7.07
43292;BMP280;28754;47.700;7.924;2022-11-25T04:20:25;91237.75;;;7.05
43292;BMP280;28754;47.700;7.924;2022-11-25T04:23:19;91243.59;;;7.05
43292;BMP280;28754;47.700;7.924;2022-11-25T04:26:16;91251.22;;;7.05
43292;BMP280;28754;47.700;7.924;2022-11-25T04:29:04;91240.06;;;7.06
43292;BMP280;28754;47.700;7.924;2022-11-25T04:31:51;91241.56;;;7.07
43292;BMP280;28754;47.700;7.924;2022-11-25T04:34:37;91243.34;;;7.07
43292;BMP280;28754;47.700;7.924;2022-11-25T04:37:24;91242.09;;;7.09
43292;BMP280;28754;47.700;7.924;2022-11-25T04:40:13;91243.41;;;7.12
43292;BMP280;28754;47.700;7.924;2022-11-25T04:43:06;91241.13;;;7.10
43292;BMP280;28754;47.700;7.924;2022-11-25T04:45:53;91248.22;;;7.08
43292;BMP280;28754;47.700;7.924;2022-11-25T04:48:40;91247.72;;;7.11
43292;BMP280;28754;47.700;7.924;2022-11-25T04:51:28;91244.66;;;7.09
43292;BMP280;28754;47.700;7.924;2022-11-25T04:54:20;91232.94;;;7.08
43292;BMP280;28754;47.700;7.924;2022-11-25T04:57:12;91236.25;;;7.09
43292;BMP280;28754;47.700;7.924;2022-11-25T05:00:00;91239.88;;;7.13
43292;BMP280;28754;47.700;7.924;2022-11-25T05:02:48;91243.69;;;7.15
43292;BMP280;28754;47.700;7.924;2022-11-25T05:05:38;91250.09;;;7.18
43292;BMP280;28754;47.700;7.924;2022-11-25T05:08:25;91266.13;;;7.18
43292;BMP280;28754;47.700;7.924;2022-11-25T05:11:12;91265.19;;;7.24
43292;BMP280;28754;47.700;7.924;2022-11-25T05:13:59;91266.25;;;7.28
43292;BMP280;28754;47.700;7.924;2022-11-25T05:16:45;91283.56;;;7.31
43292;BMP280;28754;47.700;7.924;2022-11-25T05:19:33;91279.00;;;7.33
43292;BMP280;28754;47.700;7.924;2022-11-25T05:22:26;91275.75;;;7.37
43292;BMP280;28754;47.700;7.924;2022-11-25T05:25:13;91272.72;;;7.40
43292;BMP280;28754;47.700;7.924;2022-11-25T05:28:13;91280.41;;;7.45
43292;BMP280;28754;47.700;7.924;2022-11-25T05:31:00;91277.63;;;7.47
43292;BMP280;28754;47.700;7.924;2022-11-25T05:33:46;91290.41;;;7.52
43292;BMP280;28754;47.700;7.924;2022-11-25T05:36:35;91296.03;;;7.53
43292;BMP280;28754;47.700;7.924;2022-11-25T05:39:23;91297.03;;;7.52
43292;BMP280;28754;47.700;7.924;2022-11-25T05:42:42;91296.56;;;7.55
43292;BMP280;28754;47.700;7.924;2022-11-25T05:45:29;91293.00;;;7.56
43292;BMP280;28754;47.700;7.924;2022-11-25T05:48:17;91299.38;;;7.59
43292;BMP280;28754;47.700;7.924;2022-11-25T05:51:05;91304.25;;;7.60
43292;BMP280;28754;47.700;7.924;2022-11-25T05:53:54;91303.25;;;7.61
43292;BMP280;28754;47.700;7.924;2022-11-25T05:56:43;91307.34;;;7.62
43292;BMP280;28754;47.700;7.924;2022-11-25T05:59:52;91308.09;;;7.63
43292;BMP280;28754;47.700;7.924;2022-11-25T06:02:43;91316.28;;;7.65
43292;BMP280;28754;47.700;7.924;2022-11-25T06:05:34;91313.50;;;7.66
43292;BMP280;28754;47.700;7.924;2022-11-25T06:08:21;91302.81;;;7.69
43292;BMP280;28754;47.700;7.924;2022-11-25T06:11:11;91301.81;;;7.70
43292;BMP280;28754;47.700;7.924;2022-11-25T06:13:58;91311.50;;;7.73
43292;BMP280;28754;47.700;7.924;2022-11-25T06:16:45;91308.47;;;7.76
43292;BMP280;28754;47.700;7.924;2022-11-25T06:19:43;91305.91;;;7.76
43292;BMP280;28754;47.700;7.924;2022-11-25T06:22:30;91307.25;;;7.79
43292;BMP280;28754;47.700;7.924;2022-11-25T06:25:17;91306.44;;;7.78
43292;BMP280;28754;47.700;7.924;2022-11-25T06:28:04;91295.72;;;7.76
43292;BMP280;28754;47.700;7.924;2022-11-25T06:30:50;91305.66;;;7.73
43292;BMP280;28754;47.700;7.924;2022-11-25T06:33:53;91303.09;;;7.73
43292;BMP280;28754;47.700;7.924;2022-11-25T06:36:40;91312.53;;;7.72
43292;BMP280;28754;47.700;7.924;2022-11-25T06:39:27;91307.44;;;7.72
43292;BMP280;28754;47.700;7.924;2022-11-25T06:42:13;91308.44;;;7.71
43292;BMP280;28754;47.700;7.924;2022-11-25T06:45:00;91308.97;;;7.73
43292;BMP280;28754;47.700;7.924;2022-11-25T06:47:47;91303.91;;;7.78
43292;BMP280;28754;47.700;7.924;2022-11-25T06:50:34;91310.00;;;7.77
43292;BMP280;28754;47.700;7.924;2022-11-25T06:53:20;91321.28;;;7.81
43292;BMP280;28754;47.700;7.924;2022-11-25T06:56:13;91326.38;;;7.81
43292;BMP280;28754;47.700;7.924;2022-11-25T06:59:00;91325.34;;;7.82
43292;BMP280;28754;47.700;7.924;2022-11-25T07:01:46;91321.28;;;7.81
43292;BMP280;28754;47.700;7.924;2022-11-25T07:04:33;91334.06;;;7.86
43292;BMP280;28754;47.700;7.924;2022-11-25T07:07:21;91332.78;;;7.88
43292;BMP280;28754;47.700;7.924;2022-11-25T07:10:08;91341.31;;;7.99
43292;BMP280;28754;47.700;7.924;2022-11-25T07:12:55;91343.44;;;8.07
43292;BMP280;28754;47.700;7.924;2022-11-25T07:15:42;91337.44;;;8.22
43292;BMP280;28754;47.700;7.924;2022-11-25T07:18:35;91342.72;;;8.83
43292;BMP280;28754;47.700;7.924;2022-11-25T07:21:24;91339.41;;;9.43
43292;BMP280;28754;47.700;7.924;2022-11-25T07:24:16;91347.00;;;10.04
43292;BMP280;28754;47.700;7.924;2022-11-25T07:27:03;91334.72;;;10.45
43292;BMP280;28754;47.700;7.924;2022-11-25T07:29:51;91344.69;;;10.71
43292;BMP280;28754;47.700;7.924;2022-11-25T07:32:38;91354.94;;;10.52
43292;BMP280;28754;47.700;7.924;2022-11-25T07:35:25;91358.50;;;10.61
43292;BMP280;28754;47.700;7.924;2022-11-25T07:38:11;91354.66;;;10.58
43292;BMP280;28754;47.700;7.924;2022-11-25T07:41:24;91356.22;;;10.49
43292;BMP280;28754;47.700;7.924;2022-11-25T07:44:13;91348.81;;;10.18
43292;BMP280;28754;47.700;7.924;2022-11-25T07:47:09;91371.22;;;9.87
43292;BMP280;28754;47.700;7.924;2022-11-25T07:49:55;91366.78;;;9.57
43292;BMP280;28754;47.700;7.924;2022-11-25T07:52:43;91374.63;;;9.36
43292;BMP280;28754;47.700;7.924;2022-11-25T07:55:29;91374.81;;;9.20
43292;BMP280;28754;47.700;7.924;2022-11-25T07:58:16;91375.75;;;9.04
43292;BMP280;28754;47.700;7.924;2022-11-25T08:01:07;91383.91;;;8.96
43292;BMP280;28754;47.700;7.924;2022-11-25T08:03:54;91386.91;;;8.89
43292;BMP280;28754;47.700;7.924;2022-11-25T08:06:44;91398.84;;;8.78
43292;BMP280;28754;47.700;7.924;2022-11-25T08:09:31;91393.69;;;8.68
43292;BMP280;28754;47.700;7.924;2022-11-25T08:12:17;91406.88;;;8.60
43292;BMP280;28754;47.700;7.924;2022-11-25T08:15:05;91407.84;;;8.55
43292;BMP280;28754;47.700;7.924;2022-11-25T08:17:52;91411.66;;;8.52
43292;BMP280;28754;47.700;7.924;2022-11-25T08:20:38;91416.75;;;8.47
43292;BMP280;28754;47.700;7.924;2022-11-25T08:23:26;91419.50;;;8.41
43292;BMP280;28754;47.700;7.924;2022-11-25T08:26:34;91417.63;;;8.31
43292;BMP280;28754;47.700;7.924;2022-11-25T08:29:22;91425.75;;;8.28
43292;BMP280;28754;47.700;7.924;2022-11-25T08:32:09;91431.06;;;8.22
43292;BMP280;28754;47.700;7.924;2022-11-25T08:34:56;91435.09;;;8.18
43292;BMP280;28754;47.700;7.924;2022-11-25T08:37:43;91439.91;;;8.15
43292;BMP280;28754;47.700;7.924;2022-11-25T08:40:29;91443.97;;;8.11
43292;BMP280;28754;47.700;7.924;2022-11-25T08:43:16;91446.75;;;8.09
43292;BMP280;28754;47.700;7.924;2022-11-25T08:46:09;91437.78;;;8.07
43292;BMP280;28754;47.700;7.924;2022-11-25T08:48:56;91445.88;;;8.04
43292;BMP280;28754;47.700;7.924;2022-11-25T08:51:42;91450.19;;;7.98
43292;BMP280;28754;47.700;7.924;2022-11-25T08:54:29;91441.75;;;7.98
43292;BMP280;28754;47.700;7.924;2022-11-25T08:57:16;91454.22;;;7.94
43292;BMP280;28754;47.700;7.924;2022-11-25T09:00:05;91471.53;;;7.92
43292;BMP280;28754;47.700;7.924;2022-11-25T09:02:52;91475.81;;;7.87
43292;BMP280;28754;47.700;7.924;2022-11-25T09:05:41;91480.19;;;7.91
43292;BMP280;28754;47.700;7.924;2022-11-25T09:08:28;91476.31;;;7.89
43292;BMP280;28754;47.700;7.924;2022-11-25T09:11:16;91477.34;;;7.88
43292;BMP280;28754;47.700;7.924;2022-11-25T09:14:03;91483.91;;;7.84
43292;BMP280;28754;47.700;7.924;2022-11-25T09:16:50;91480.56;;;7.79
43292;BMP280;28754;47.700;7.924;2022-11-25T09:19:36;91481.84;;;7.81
43292;BMP280;28754;47.700;7.924;2022-11-25T09:22:23;91485.69;;;7.84
43292;BMP280;28754;47.700;7.924;2022-11-25T09:25:10;91484.94;;;7.83
43292;BMP280;28754;47.700;7.924;2022-11-25T09:27:57;91483.91;;;7.84
43292;BMP280;28754;47.700;7.924;2022-11-25T09:30:43;91480.66;;;7.88
43292;BMP280;28754;47.700;7.924;2022-11-25T09:33:30;91486.06;;;7.92
43292;BMP280;28754;47.700;7.924;2022-11-25T09:36:19;91482.97;;;7.90
43292;BMP280;28754;47.700;7.924;2022-11-25T09:39:06;91489.91;;;7.94
43292;BMP280;28754;47.700;7.924;2022-11-25T09:45:22;91492.50;;;7.99
43292;BMP280;28754;47.700;7.924;2022-11-25T09:48:43;91494.88;;;8.06
43292;BMP280;28754;47.700;7.924;2022-11-25T09:52:06;91491.31;;;8.07
43292;BMP280;28754;47.700;7.924;2022-11-25T10:01:05;91487.34;;;8.16
43292;BMP280;28754;47.700;7.924;2022-11-25T10:04:03;91473.41;;;8.23
43292;BMP280;28754;47.700;7.924;2022-11-25T10:07:00;91470.66;;;8.29
43292;BMP280;28754;47.700;7.924;2022-11-25T10:09:48;91476.81;;;8.33
43292;BMP280;28754;47.700;7.924;2022-11-25T10:12:39;91470.78;;;8.44
43292;BMP280;28754;47.700;7.924;2022-11-25T10:15:35;91476.81;;;9.31
43292;BMP280;28754;47.700;7.924;2022-11-25T10:18:50;91459.06;;;9.56
43292;BMP280;28754;47.700;7.924;2022-11-25T10:21:38;91469.75;;;9.48
43292;BMP280;28754;47.700;7.924;2022-11-25T10:24:26;91482.00;;;9.41
43292;BMP280;28754;47.700;7.924;2022-11-25T10:27:24;91484.78;;;9.35
43292;BMP280;28754;47.700;7.924;2022-11-25T10:33:47;91479.03;;;9.13
43292;BMP280;28754;47.700;7.924;2022-11-25T10:36:39;91479.47;;;9.05
43292;BMP280;28754;47.700;7.924;2022-11-25T10:39:32;91483.00;;;8.99
43292;BMP280;28754;47.700;7.924;2022-11-25T10:42:24;91474.28;;;8.95
43292;BMP280;28754;47.700;7.924;2022-11-25T10:45:11;91474.28;;;8.95
43292;BMP280;28754;47.700;7.924;2022-11-25T10:48:22;91478.31;;;8.91
43292;BMP280;28754;47.700;7.924;2022-11-25T10:51:32;91475.75;;;8.87
43292;BMP280;28754;47.700;7.924;2022-11-25T10:54:23;91483.09;;;8.78
43292;BMP280;28754;47.700;7.924;2022-11-25T10:57:20;91479.66;;;8.63
43292;BMP280;28754;47.700;7.924;2022-11-25T11:03:25;91490.47;;;8.49
43292;BMP280;28754;47.700;7.924;2022-11-25T11:06:36;91493.53;;;8.46
43292;BMP280;28754;47.700;7.924;2022-11-25T11:09:36;91489.94;;;8.47
43292;BMP280;28754;47.700;7.924;2022-11-25T11:12:28;91490.44;;;8.44
43292;BMP280;28754;47.700;7.924;2022-11-25T11:15:43;91490.44;;;8.44
43292;BMP280;28754;47.700;7.924;2022-11-25T11:24:31;91494.09;;;8.53
43292;BMP280;28754;47.700;7.924;2022-11-25T11:27:24;91500.50;;;8.55
43292;BMP280;28754;47.700;7.924;2022-11-25T11:30:20;91495.38;;;8.55
43292;BMP280;28754;47.700;7.924;2022-11-25T11:33:35;91492.84;;;8.55
43292;BMP280;28754;47.700;7.924;2022-11-25T11:46:50;91502.81;;;8.30
43292;BMP280;28754;47.700;7.924;2022-11-25T11:49:46;91502.78;;;8.25
43292;BMP280;28754;47.700;7.924;2022-11-25T11:53:09;91505.22;;;8.16
43292;BMP280;28754;47.700;7.924;2022-11-25T11:56:23;91504.53;;;8.04
43292;BMP280;28754;47.700;7.924;2022-11-25T11:59:45;91515.34;;;7.89
43292;BMP280;28754;47.700;7.924;2022-11-25T12:05:48;91511.19;;;7.84
43292;BMP280;28754;47.700;7.924;2022-11-25T12:08:48;91508.69;;;7.88
43292;BMP280;28754;47.700;7.924;2022-11-25T12:11:39;91516.13;;;7.90
43292;BMP280;28754;47.700;7.924;2022-11-25T12:14:50;91514.63;;;7.94
43292;BMP280;28754;47.700;7.924;2022-11-25T12:17:50;91520.72;;;7.93
43292;BMP280;28754;47.700;7.924;2022-11-25T12:21:03;91527.31;;;7.89
43292;BMP280;28754;47.700;7.924;2022-11-25T12:27:13;91527.84;;;7.91
43292;BMP280;28754;47.700;7.924;2022-11-25T12:30:12;91535.97;;;7.88
43292;BMP280;28754;47.700;7.924;2022-11-25T12:33:21;91531.09;;;7.86
43292;BMP280;28754;47.700;7.924;2022-11-25T12:36:25;91532.59;;;7.83
43292;BMP280;28754;47.700;7.924;2022-11-25T12:42:23;91554.47;;;7.79
43292;BMP280;28754;47.700;7.924;2022-11-25T12:45:21;91561.34;;;7.78
43292;BMP280;28754;47.700;7.924;2022-11-25T12:48:10;91547.06;;;7.77
43292;BMP280;28754;47.700;7.924;2022-11-25T12:54:50;91545.31;;;7.83
43292;BMP280;28754;47.700;7.924;2022-11-25T13:04:18;91549.47;;;7.88
43292;BMP280;28754;47.700;7.924;2022-11-25T13:07:41;91557.13;;;7.88
43292;BMP280;28754;47.700;7.924;2022-11-25T13:11:15;91557.50;;;7.97
43292;BMP280;28754;47.700;7.924;2022-11-25T13:17:14;91557.31;;;8.03
43292;BMP280;28754;47.700;7.924;2022-11-25T13:32:24;91579.34;;;8.09
43292;BMP280;28754;47.700;7.924;2022-11-25T13:44:23;91598.34;;;8.18
43292;BMP280;28754;47.700;7.924;2022-11-25T13:47:27;91597.09;;;8.21
43292;BMP280;28754;47.700;7.924;2022-11-25T13:53:23;91602.38;;;8.14
43292;BMP280;28754;47.700;7.924;2022-11-25T13:56:35;91612.56;;;8.14
43292;BMP280;28754;47.700;7.924;2022-11-25T13:59:48;91616.38;;;8.12
43292;BMP280;28754;47.700;7.924;2022-11-25T14:02:39;91624.00;;;8.12
43292;BMP280;28754;47.700;7.924;2022-11-25T14:09:41;91635.38;;;8.04
43292;BMP280;28754;47.700;7.924;2022-11-25T14:12:57;91636.38;;;8.03
43292;BMP280;28754;47.700;7.924;2022-11-25T14:25:20;91652.06;;;8.12
43292;BMP280;28754;47.700;7.924;2022-11-25T14:31:26;91645.44;;;8.11
43292;BMP280;28754;47.700;7.924;2022-11-25T14:35:31;91660.41;;;8.07
43292;BMP280;28754;47.700;7.924;2022-11-25T14:38:39;91641.25;;;8.05
43292;BMP280;28754;47.700;7.924;2022-11-25T14:42:09;91658.63;;;8.08
43292;BMP280;28754;47.700;7.924;2022-11-25T14:44:57;91666.84;;;8.10
43292;BMP280;28754;47.700;7.924;2022-11-25T14:47:44;91661.28;;;8.13
43292;BMP280;28754;47.700;7.924;2022-11-25T14:50:31;91666.38;;;8.13
43292;BMP280;28754;47.700;7.924;2022-11-25T14:53:18;91677.09;;;8.15
43292;BMP280;28754;47.700;7.924;2022-11-25T14:56:05;91683.97;;;8.14
43292;BMP280;28754;47.700;7.924;2022-11-25T14:58:55;91681.69;;;8.13
43292;BMP280;28754;47.700;7.924;2022-11-25T15:01:53;91680.13;;;8.12
43292;BMP280;28754;47.700;7.924;2022-11-25T15:04:40;91681.69;;;8.13
43292;BMP280;28754;47.700;7.924;2022-11-25T15:07:27;91679.59;;;8.10
43292;BMP280;28754;47.700;7.924;2022-11-25T15:13:38;91691.09;;;8.12
43292;BMP280;28754;47.700;7.924;2022-11-25T15:16:33;91699.53;;;8.13
43292;BMP280;28754;47.700;7.924;2022-11-25T15:19:24;91699.75;;;8.11
43292;BMP280;28754;47.700;7.924;2022-11-25T15:22:17;91700.22;;;8.08
43292;BMP280;28754;47.700;7.924;2022-11-25T15:25:13;91711.50;;;8.12
43292;BMP280;28754;47.700;7.924;2022-11-25T15:28:00;91712.75;;;8.10
43292;BMP280;28754;47.700;7.924;2022-11-25T15:31:06;91724.38;;;8.06
43292;BMP280;28754;47.700;7.924;2022-11-25T15:33:58;91715.19;;;8.05
43292;BMP280;28754;47.700;7.924;2022-11-25T15:36:46;91722.78;;;8.00
43292;BMP280;28754;47.700;7.924;2022-11-25T15:39:33;91730.13;;;7.96
43292;BMP280;28754;47.700;7.924;2022-11-25T15:42:24;91724.47;;;7.94
43292;BMP280;28754;47.700;7.924;2022-11-25T15:45:20;91729.56;;;7.94
43292;BMP280;28754;47.700;7.924;2022-11-25T15:48:16;91747.66;;;7.93
43292;BMP280;28754;47.700;7.924;2022-11-25T15:51:32;91741.56;;;7.94
43292;BMP280;28754;47.700;7.924;2022-11-25T15:54:41;91758.94;;;7.97
43292;BMP280;28754;47.700;7.924;2022-11-25T15:57:37;91755.41;;;7.98
43292;BMP280;28754;47.700;7.924;2022-11-25T16:00:24;91762.25;;;7.97
43292;BMP280;28754;47.700;7.924;2022-11-25T16:03:20;91765.81;;;7.96
43292;BMP280;28754;47.700;7.924;2022-11-25T16:06:23;91771.91;;;7.95
43292;BMP280;28754;47.700;7.924;2022-11-25T16:09:20;91772.91;;;7.94
43292;BMP280;28754;47.700;7.924;2022-11-25T16:12:16;91762.66;;;7.89
43292;BMP280;28754;47.700;7.924;2022-11-25T16:15:03;91772.31;;;7.87
43292;BMP280;28754;47.700;7.924;2022-11-25T16:17:52;91784.72;;;7.84
43292;BMP280;28754;47.700;7.924;2022-11-25T16:20:46;91783.66;;;7.80
43292;BMP280;28754;47.700;7.924;2022-11-25T16:23:39;91793.75;;;7.75
43292;BMP280;28754;47.700;7.924;2022-11-25T16:26:32;91786.81;;;7.71
43292;BMP280;28754;47.700;7.924;2022-11-25T16:29:48;91789.03;;;7.67
43292;BMP280;28754;47.700;7.924;2022-11-25T16:32:34;91783.88;;;7.62
43292;BMP280;28754;47.700;7.924;2022-11-25T16:35:21;91788.41;;;7.60
43292;BMP280;28754;47.700;7.924;2022-11-25T16:38:11;91794.59;;;7.64
43292;BMP280;28754;47.700;7.924;2022-11-25T16:40:58;91783.66;;;7.64
43292;BMP280;28754;47.700;7.924;2022-11-25T16:43:45;91787.72;;;7.65
43292;BMP280;28754;47.700;7.924;2022-11-25T16:46:31;91784.41;;;7.64
43292;BMP280;28754;47.700;7.924;2022-11-25T16:49:20;91783.66;;;7.64
43292;BMP280;28754;47.700;7.924;2022-11-25T16:52:06;91786.88;;;7.59
43292;BMP280;28754;47.700;7.924;2022-11-25T16:54:53;91800.31;;;7.55
43292;BMP280;28754;47.700;7.924;2022-11-25T16:57:41;91811.63;;;7.48
43292;BMP280;28754;47.700;7.924;2022-11-25T17:00:28;91812.78;;;7.40
43292;BMP280;28754;47.700;7.924;2022-11-25T17:03:16;91813.91;;;7.33
43292;BMP280;28754;47.700;7.924;2022-11-25T17:06:13;91831.44;;;7.29
43292;BMP280;28754;47.700;7.924;2022-11-25T17:09:00;91828.78;;;7.24
43292;BMP280;28754;47.700;7.924;2022-11-25T17:11:50;91842.94;;;7.20
43292;BMP280;28754;47.700;7.924;2022-11-25T17:14:40;91840.09;;;7.17
43292;BMP280;28754;47.700;7.924;2022-11-25T17:17:27;91846.63;;;7.13
43292;BMP280;28754;47.700;7.924;2022-11-25T17:20:20;91848.19;;;7.14
43292;BMP280;28754;47.700;7.924;2022-11-25T17:23:13;91850.06;;;7.18
43292;BMP280;28754;47.700;7.924;2022-11-25T17:26:00;91864.44;;;7.24
43292;BMP280;28754;47.700;7.924;2022-11-25T17:28:57;91862.00;;;7.29
43292;BMP280;28754;47.700;7.924;2022-11-25T17:31:45;91859.75;;;7.33
43292;BMP280;28754;47.700;7.924;2022-11-25T17:34:31;91867.72;;;7.36
43292;BMP280;28754;47.700;7.924;2022-11-25T17:37:22;91875.16;;;7.38
43292;BMP280;28754;47.700;7.924;2022-11-25T17:40:11;91879.56;;;7.42
43292;BMP280;28754;47.700;7.924;2022-11-25T17:42:58;91881.66;;;7.45
43292;BMP280;28754;47.700;7.924;2022-11-25T17:45:45;91883.44;;;7.45
43292;BMP280;28754;47.700;7.924;2022-11-25T17:48:32;91882.88;;;7.43
43292;BMP280;28754;47.700;7.924;2022-11-25T17:51:19;91893.16;;;7.48
43292;BMP280;28754;47.700;7.924;2022-11-25T17:54:06;91897.28;;;7.49
43292;BMP280;28754;47.700;7.924;2022-11-25T17:56:52;91907.47;;;7.49
43292;BMP280;28754;47.700;7.924;2022-11-25T17:59:39;91906.69;;;7.48
43292;BMP280;28754;47.700;7.924;2022-11-25T18:02:26;91917.66;;;7.49
43292;BMP280;28754;47.700;7.924;2022-11-25T18:05:17;91916.66;;;7.50
43292;BMP280;28754;47.700;7.924;2022-11-25T18:08:05;91928.63;;;7.49
43292;BMP280;28754;47.700;7.924;2022-11-25T18:10:52;91927.59;;;7.50
43292;BMP280;28754;47.700;7.924;2022-11-25T18:13:40;91931.72;;;7.51
43292;BMP280;28754;47.700;7.924;2022-11-25T18:16:27;91932.03;;;7.54
43292;BMP280;28754;47.700;7.924;2022-11-25T18:19:16;91931.59;;;7.57
43292;BMP280;28754;47.700;7.924;2022-11-25T18:22:16;91929.03;;;7.57
43292;BMP280;28754;47.700;7.924;2022-11-25T18:25:04;91920.84;;;7.55
43292;BMP280;28754;47.700;7.924;2022-11-25T18:28:14;91933.59;;;7.55
43292;BMP280;28754;47.700;7.924;2022-11-25T18:31:44;91941.03;;;7.46
43292;BMP280;28754;47.700;7.924;2022-11-25T18:34:57;91951.78;;;7.48